Time;durP1;ratioP1;P1;durP2;ratioP2;P2;SDS_P1;SDS_P2;PMS_P1;PMS_P2;Temp;Humidity;BMP_temperature;BMP_pressure;BME280_temperature;BME280_humidity;BME280_pressure;Samples;Min_cycle;Max_cycle;Signal;HPM_P1;HPM_P2
2022/02/13 00:02:14;;;;;;;4.72;2.00;;;16.20;51.90;;;;;;5073255;28;20020;-73
2022/02/13 00:04:39;;;;;;;5.68;2.08;;;16.20;51.90;;;;;;5073695;28;20064;-73
2022/02/13 00:07:05;;;;;;;4.03;1.98;;;16.20;52.00;;;;;;5073639;28;20035;-73
2022/02/13 00:09:31;;;;;;;4.53;2.13;;;16.10;51.90;;;;;;5073111;28;20016;-73
2022/02/13 00:12:02;;;;;;;5.57;2.13;;;16.10;51.90;;;;;;5071394;28;20476;-74
2022/02/13 00:14:29;;;;;;;3.53;2.17;;;16.10;51.80;;;;;;5073143;28;20032;-74
2022/02/13 00:16:55;;;;;;;4.43;1.98;;;16.10;51.80;;;;;;5071847;28;20443;-73
2022/02/13 00:19:21;;;;;;;4.32;2.08;;;16.10;51.80;;;;;;5072338;28;20044;-73
2022/02/13 00:21:47;;;;;;;4.75;2.15;;;16.10;51.80;;;;;;5071827;28;20072;-74
2022/02/13 00:24:12;;;;;;;4.40;2.20;;;16.00;51.80;;;;;;5072696;28;20021;-75
2022/02/13 00:26:38;;;;;;;4.30;2.25;;;16.00;51.80;;;;;;5073207;28;20033;-74
2022/02/13 00:29:04;;;;;;;6.30;2.55;;;16.00;51.80;;;;;;5073077;28;20027;-73
2022/02/13 00:31:30;;;;;;;5.50;2.10;;;16.00;51.90;;;;;;5072639;28;20034;-73
2022/02/13 00:33:55;;;;;;;4.63;1.98;;;15.90;51.70;;;;;;5072985;28;20058;-72
2022/02/13 00:36:21;;;;;;;5.47;2.30;;;15.90;51.60;;;;;;5072532;28;20094;-72
2022/02/13 00:38:47;;;;;;;4.20;1.92;;;16.00;51.50;;;;;;5071590;28;20016;-74
2022/02/13 00:41:13;;;;;;;4.85;2.20;;;16.00;51.50;;;;;;5072625;28;20499;-74
2022/02/13 00:43:40;;;;;;;4.03;2.00;;;15.90;51.40;;;;;;5073087;28;20464;-73
2022/02/13 00:46:05;;;;;;;3.55;2.40;;;16.00;51.40;;;;;;5072911;28;20025;-72
2022/02/13 00:48:31;;;;;;;4.30;2.58;;;16.00;51.40;;;;;;5072410;28;20043;-72
2022/02/13 00:50:57;;;;;;;4.57;2.38;;;16.00;51.50;;;;;;5071296;28;20051;-72
2022/02/13 00:53:22;;;;;;;5.75;2.22;;;16.00;51.50;;;;;;5072251;28;20033;-73
2022/02/13 00:55:48;;;;;;;3.10;1.85;;;16.00;51.50;;;;;;5072471;28;20037;-74
2022/02/13 00:58:14;;;;;;;5.00;2.55;;;16.00;51.50;;;;;;5070857;28;20025;-73
2022/02/13 01:00:39;;;;;;;4.97;2.03;;;16.00;51.50;;;;;;5071192;28;20032;-72
2022/02/13 01:03:05;;;;;;;4.40;2.13;;;16.00;51.40;;;;;;5071392;28;20025;-73
2022/02/13 01:05:30;;;;;;;5.15;2.17;;;16.00;51.30;;;;;;5072100;28;20021;-73
2022/02/13 01:07:56;;;;;;;5.32;2.00;;;16.00;51.30;;;;;;5072291;28;20028;-72
2022/02/13 01:10:22;;;;;;;4.80;2.10;;;16.00;51.30;;;;;;5070734;28;20039;-74
2022/02/13 01:12:48;;;;;;;4.65;1.80;;;16.00;51.30;;;;;;5070855;28;20480;-72
2022/02/13 01:15:15;;;;;;;5.53;2.60;;;16.00;51.20;;;;;;5071696;28;20031;-74
2022/02/13 01:17:41;;;;;;;3.50;1.73;;;16.00;51.20;;;;;;5070848;28;20020;-73
2022/02/13 01:20:07;;;;;;;3.80;2.08;;;16.00;51.10;;;;;;5072359;28;20020;-74
2022/02/13 01:22:33;;;;;;;3.20;1.58;;;16.00;51.00;;;;;;5070476;28;20036;-73
2022/02/13 01:24:58;;;;;;;4.32;1.95;;;16.10;51.10;;;;;;5070544;28;20040;-72
2022/02/13 01:27:24;;;;;;;3.85;1.65;;;16.10;51.10;;;;;;5071704;28;20056;-73
2022/02/13 01:29:50;;;;;;;3.47;1.92;;;16.10;51.00;;;;;;5071813;28;20021;-73
2022/02/13 01:32:15;;;;;;;4.93;1.95;;;16.10;50.90;;;;;;5070352;28;20029;-74
2022/02/13 01:34:41;;;;;;;3.83;2.17;;;16.10;50.90;;;;;;5071750;28;20097;-72
2022/02/13 01:37:06;;;;;;;3.88;2.08;;;16.10;50.80;;;;;;5072078;28;20039;-75
2022/02/13 01:39:33;;;;;;;4.20;1.73;;;16.10;50.80;;;;;;5071454;28;20025;-74
2022/02/13 01:41:59;;;;;;;5.07;2.33;;;16.10;50.80;;;;;;5071667;28;20067;-74
2022/02/13 01:44:27;;;;;;;3.75;2.10;;;16.20;50.80;;;;;;5070090;28;20048;-74
2022/02/13 01:46:53;;;;;;;4.25;1.75;;;16.20;50.70;;;;;;5070621;28;20024;-74
2022/02/13 01:49:19;;;;;;;3.30;1.88;;;16.20;50.70;;;;;;5071363;28;20099;-74
2022/02/13 01:51:45;;;;;;;3.72;2.03;;;16.20;50.60;;;;;;5070285;28;20475;-74
2022/02/13 01:54:11;;;;;;;4.22;2.17;;;16.20;50.60;;;;;;5071348;28;20025;-74
2022/02/13 01:56:38;;;;;;;3.72;1.98;;;16.20;50.60;;;;;;5070082;28;20123;-74
2022/02/13 01:59:04;;;;;;;4.10;1.83;;;16.20;50.60;;;;;;5071444;28;20025;-73
2022/02/13 02:01:30;;;;;;;4.30;2.05;;;16.20;50.50;;;;;;5071165;28;20089;-74
2022/02/13 02:03:55;;;;;;;3.63;1.92;;;16.20;50.50;;;;;;5070080;28;20024;-73
2022/02/13 02:06:21;;;;;;;6.28;2.60;;;16.20;50.40;;;;;;5069848;28;20480;-73
2022/02/13 02:08:47;;;;;;;4.15;2.00;;;16.20;50.40;;;;;;5071357;28;20048;-74
2022/02/13 02:11:12;;;;;;;3.60;1.85;;;16.20;50.40;;;;;;5069790;28;20033;-74
2022/02/13 02:13:38;;;;;;;4.22;1.95;;;16.30;50.40;;;;;;5071522;28;20025;-74
2022/02/13 02:16:04;;;;;;;5.88;2.75;;;16.30;50.40;;;;;;5071141;28;20040;-71
2022/02/13 02:18:30;;;;;;;4.32;2.20;;;16.30;50.40;;;;;;5069381;28;20052;-72
2022/02/13 02:21:02;;;;;;;5.43;2.20;;;16.30;50.40;;;;;;5071171;28;20043;-72
2022/02/13 02:23:27;;;;;;;4.60;1.67;;;16.30;50.10;;;;;;5070934;28;20017;-74
2022/02/13 02:25:53;;;;;;;5.90;2.35;;;16.30;50.30;;;;;;5070789;28;20484;-72
2022/02/13 02:28:19;;;;;;;4.28;2.45;;;16.30;50.30;;;;;;5070787;28;20023;-73
2022/02/13 02:30:44;;;;;;;3.58;2.10;;;16.30;50.40;;;;;;5071046;28;20423;-73
2022/02/13 02:33:14;;;;;;;5.05;2.25;;;16.30;50.40;;;;;;5069531;28;20550;-71
2022/02/13 02:35:40;;;;;;;5.40;2.08;;;16.30;50.40;;;;;;5071081;28;20040;-72
2022/02/13 02:38:06;;;;;;;4.05;1.67;;;16.30;50.30;;;;;;5071352;28;20028;-74
2022/02/13 02:40:32;;;;;;;3.95;1.77;;;16.30;50.40;;;;;;5070621;28;20055;-74
2022/02/13 02:42:58;;;;;;;5.07;2.05;;;16.30;50.30;;;;;;5071281;28;20353;-74
2022/02/13 02:45:24;;;;;;;3.30;1.75;;;16.30;50.30;;;;;;5070788;28;20025;-73
2022/02/13 02:47:50;;;;;;;4.38;2.40;;;16.30;50.20;;;;;;5071041;28;20021;-74
2022/02/13 02:50:16;;;;;;;4.90;2.35;;;16.30;50.30;;;;;;5069335;28;20449;-73
2022/02/13 02:52:42;;;;;;;4.32;1.88;;;16.30;50.20;;;;;;5070895;28;20020;-74
2022/02/13 02:55:08;;;;;;;5.10;2.17;;;16.30;50.20;;;;;;5071068;28;20365;-73
2022/02/13 02:57:34;;;;;;;4.75;2.40;;;16.40;50.20;;;;;;5070466;28;20032;-73
2022/02/13 03:00:01;;;;;;;3.03;2.05;;;16.30;50.10;;;;;;5069518;28;20495;-74
2022/02/13 03:02:27;;;;;;;5.20;2.38;;;16.40;50.20;;;;;;5069240;28;20029;-73
2022/02/13 03:04:52;;;;;;;4.05;2.50;;;16.40;50.20;;;;;;5069465;28;20143;-74
2022/02/13 03:07:18;;;;;;;3.75;2.08;;;16.30;50.00;;;;;;5069649;28;20037;-73
2022/02/13 03:09:44;;;;;;;3.83;2.15;;;16.40;50.10;;;;;;5074398;28;20013;-75
2022/02/13 03:12:09;;;;;;;3.80;2.03;;;16.40;50.10;;;;;;5073452;28;20029;-71
2022/02/13 03:14:35;;;;;;;4.55;2.15;;;16.40;50.00;;;;;;5074723;28;20388;-74
2022/02/13 03:17:03;;;;;;;4.70;2.58;;;16.40;50.00;;;;;;5074329;28;20040;-74
2022/02/13 03:19:29;;;;;;;3.33;2.42;;;16.40;50.00;;;;;;5072805;28;20039;-74
2022/02/13 03:21:55;;;;;;;3.65;2.17;;;16.40;49.90;;;;;;5073021;28;20539;-75
2022/02/13 03:24:21;;;;;;;5.05;2.72;;;16.40;49.90;;;;;;5072652;28;20024;-75
2022/02/13 03:26:46;;;;;;;4.18;2.10;;;16.40;49.90;;;;;;5074305;28;20067;-75
2022/02/13 03:29:14;;;;;;;3.28;2.20;;;16.40;49.90;;;;;;5073962;28;20064;-73
2022/02/13 03:31:40;;;;;;;4.50;2.33;;;16.40;49.90;;;;;;5072926;28;20369;-73
2022/02/13 03:34:06;;;;;;;5.75;2.33;;;16.40;49.90;;;;;;5073083;28;20027;-73
2022/02/13 03:36:31;;;;;;;4.25;2.58;;;16.40;49.90;;;;;;5073759;28;20113;-74
2022/02/13 03:38:57;;;;;;;3.38;1.90;;;16.40;49.90;;;;;;5073885;28;20025;-72
2022/02/13 03:41:23;;;;;;;3.63;2.00;;;16.40;49.80;;;;;;5073730;28;20094;-74
2022/02/13 03:43:48;;;;;;;4.15;2.30;;;16.40;49.90;;;;;;5073922;28;20047;-73
2022/02/13 03:46:14;;;;;;;3.58;2.20;;;16.40;49.80;;;;;;5073692;28;20056;-74
2022/02/13 03:48:40;;;;;;;3.55;2.03;;;16.40;49.80;;;;;;5072576;28;20031;-72
2022/02/13 03:51:05;;;;;;;4.93;2.38;;;16.40;49.80;;;;;;5074258;28;20020;-75
2022/02/13 03:53:31;;;;;;;5.05;2.60;;;16.40;49.80;;;;;;5072168;28;20052;-74
2022/02/13 03:55:57;;;;;;;5.03;2.35;;;16.40;49.80;;;;;;5073625;28;20032;-74
2022/02/13 03:58:23;;;;;;;3.03;2.15;;;16.40;49.80;;;;;;5073439;28;20024;-73
2022/02/13 04:00:49;;;;;;;3.55;1.95;;;16.40;49.70;;;;;;5073634;28;20024;-73
2022/02/13 04:03:14;;;;;;;3.45;2.45;;;16.40;49.70;;;;;;5073320;28;20499;-73
2022/02/13 04:05:40;;;;;;;4.25;2.58;;;16.40;49.70;;;;;;5073526;28;20480;-73
2022/02/13 04:08:07;;;;;;;3.03;2.22;;;16.40;49.70;;;;;;5073742;28;20107;-74
2022/02/13 04:10:33;;;;;;;3.72;2.28;;;16.40;49.70;;;;;;5073134;28;20460;-73
2022/02/13 04:12:59;;;;;;;3.78;2.05;;;16.40;49.70;;;;;;5073364;28;20023;-73
2022/02/13 04:15:25;;;;;;;4.90;2.47;;;16.40;49.60;;;;;;5073090;28;20047;-73
2022/02/13 04:17:51;;;;;;;4.68;2.38;;;16.40;49.60;;;;;;5073072;28;20021;-73
2022/02/13 04:20:20;;;;;;;4.93;2.22;;;16.40;49.50;;;;;;5072923;28;20028;-74
2022/02/13 04:22:46;;;;;;;5.28;2.35;;;16.40;49.50;;;;;;5073171;28;20049;-73
2022/02/13 04:25:12;;;;;;;3.65;2.33;;;16.40;49.50;;;;;;5072805;28;20032;-74
2022/02/13 04:27:37;;;;;;;4.10;2.58;;;16.40;49.40;;;;;;5073527;28;20025;-74
2022/02/13 04:30:05;;;;;;;3.53;2.10;;;16.40;49.40;;;;;;5073092;28;20408;-72
2022/02/13 04:32:31;;;;;;;4.25;2.42;;;16.40;49.40;;;;;;5072735;28;20028;-74
2022/02/13 04:34:56;;;;;;;5.50;2.58;;;16.40;49.40;;;;;;5072923;28;20033;-74
2022/02/13 04:37:22;;;;;;;2.90;2.10;;;16.40;49.40;;;;;;5072610;28;20056;-75
2022/02/13 04:39:48;;;;;;;3.80;2.28;;;16.40;49.30;;;;;;5073045;28;20021;-75
2022/02/13 04:42:14;;;;;;;3.67;2.20;;;16.40;49.30;;;;;;5071360;28;20056;-74
2022/02/13 04:44:41;;;;;;;5.60;2.00;;;16.40;49.40;;;;;;5072820;28;20425;-73
2022/02/13 04:47:07;;;;;;;5.85;2.45;;;16.40;49.40;;;;;;5073184;28;20074;-75
2022/02/13 04:49:33;;;;;;;3.35;2.20;;;16.40;49.40;;;;;;5072436;28;20460;-75
2022/02/13 04:51:58;;;;;;;3.75;2.22;;;16.40;49.40;;;;;;5072714;28;20024;-75
2022/02/13 04:54:24;;;;;;;4.88;2.50;;;16.40;49.40;;;;;;5072387;28;20063;-75
2022/02/13 04:56:51;;;;;;;4.03;1.98;;;16.40;49.40;;;;;;5072615;28;20507;-74
2022/02/13 04:59:19;;;;;;;4.22;2.20;;;16.50;49.50;;;;;;5072232;28;20484;-75
2022/02/13 05:01:45;;;;;;;4.15;2.65;;;16.40;49.50;;;;;;5071314;28;20081;-74
2022/02/13 05:04:11;;;;;;;4.68;2.55;;;16.50;49.60;;;;;;5072202;28;20139;-73
2022/02/13 05:06:36;;;;;;;3.58;2.17;;;16.40;49.50;;;;;;5072665;28;20017;-73
2022/02/13 05:09:03;;;;;;;5.32;2.58;;;16.40;49.40;;;;;;5072253;28;20431;-74
2022/02/13 05:11:29;;;;;;;4.05;2.47;;;16.50;49.50;;;;;;5071990;28;20460;-74
2022/02/13 05:13:54;;;;;;;5.00;2.55;;;16.40;49.40;;;;;;5070782;28;20024;-73
2022/02/13 05:16:20;;;;;;;3.63;2.35;;;16.50;49.60;;;;;;5071938;28;20043;-74
2022/02/13 05:18:46;;;;;;;4.68;2.50;;;16.40;49.50;;;;;;5070851;28;20028;-73
2022/02/13 05:21:12;;;;;;;4.18;2.30;;;16.50;49.50;;;;;;5071821;28;20078;-73
2022/02/13 05:23:38;;;;;;;5.15;2.47;;;16.50;49.50;;;;;;5072355;28;20396;-73
2022/02/13 05:26:03;;;;;;;4.55;2.25;;;16.50;49.50;;;;;;5071801;28;20123;-73
2022/02/13 05:28:30;;;;;;;4.32;2.53;;;16.50;49.50;;;;;;5071710;28;20427;-73
2022/02/13 05:30:55;;;;;;;5.15;2.38;;;16.40;49.30;;;;;;5071296;28;20056;-74
2022/02/13 05:33:21;;;;;;;5.85;2.63;;;16.40;49.40;;;;;;5071623;28;20068;-74
2022/02/13 05:35:47;;;;;;;3.80;2.25;;;16.40;49.30;;;;;;5071664;28;20453;-73
2022/02/13 05:38:13;;;;;;;3.50;2.08;;;16.40;49.30;;;;;;5070213;28;20020;-73
2022/02/13 05:40:38;;;;;;;3.47;2.03;;;16.40;49.30;;;;;;5072013;28;20029;-73
2022/02/13 05:43:04;;;;;;;3.90;2.05;;;16.40;49.20;;;;;;5071643;28;20031;-73
2022/02/13 05:45:29;;;;;;;4.00;2.20;;;16.40;49.80;;;;;;5071454;28;20028;-73
2022/02/13 05:47:55;;;;;;;4.70;2.08;;;16.40;49.20;;;;;;5071568;28;20125;-73
2022/02/13 05:50:21;;;;;;;4.15;2.35;;;16.40;49.20;;;;;;5071241;28;20035;-73
2022/02/13 05:52:47;;;;;;;3.60;2.08;;;16.50;49.20;;;;;;5071463;28;20487;-74
2022/02/13 05:55:12;;;;;;;3.50;2.05;;;16.40;49.10;;;;;;5071156;28;20401;-74
2022/02/13 05:57:45;;;;;;;3.67;2.10;;;16.40;49.20;;;;;;5071787;28;20407;-73
2022/02/13 06:00:12;;;;;;;2.88;2.13;;;16.40;49.20;;;;;;5069870;28;20031;-73
2022/02/13 06:02:41;;;;;;;4.28;2.17;;;16.40;49.20;;;;;;5071625;28;20590;-74
2022/02/13 06:05:07;;;;;;;3.38;2.28;;;16.40;49.20;;;;;;5071662;28;20023;-74
2022/02/13 06:07:42;;;;;;;4.07;2.15;;;16.40;49.20;;;;;;5071096;28;20025;-74
2022/02/13 06:10:10;;;;;;;4.60;2.20;;;16.40;49.20;;;;;;5071641;28;20017;-73
2022/02/13 06:12:36;;;;;;;4.05;2.17;;;16.40;49.30;;;;;;5071517;28;20027;-74
2022/02/13 06:15:05;;;;;;;4.72;2.28;;;16.40;49.30;;;;;;5069883;28;20031;-74
2022/02/13 06:17:31;;;;;;;5.13;2.45;;;16.40;49.20;;;;;;5069698;28;20039;-73
2022/02/13 06:19:57;;;;;;;3.30;1.90;;;16.40;49.20;;;;;;5071199;28;20417;-72
2022/02/13 06:22:22;;;;;;;3.22;2.08;;;16.40;49.20;;;;;;5070991;28;20081;-73
2022/02/13 06:24:48;;;;;;;4.22;2.60;;;16.40;49.20;;;;;;5070965;28;20424;-74
2022/02/13 06:27:14;;;;;;;5.07;2.55;;;16.40;49.20;;;;;;5070849;28;20024;-74
2022/02/13 06:29:39;;;;;;;3.40;1.95;;;16.40;49.20;;;;;;5071038;28;20021;-71
2022/02/13 06:32:05;;;;;;;4.47;2.22;;;16.30;49.00;;;;;;5071302;28;20029;-74
2022/02/13 06:34:31;;;;;;;4.22;2.13;;;16.30;49.10;;;;;;5070807;28;20025;-74
2022/02/13 06:36:57;;;;;;;4.53;2.40;;;16.30;49.10;;;;;;5070913;28;20374;-73
2022/02/13 06:39:22;;;;;;;3.20;2.20;;;16.30;49.10;;;;;;5070679;28;20025;-73
2022/02/13 06:41:48;;;;;;;4.45;2.30;;;16.40;49.20;;;;;;5072489;28;20024;-74
2022/02/13 06:44:13;;;;;;;3.28;1.90;;;16.30;49.10;;;;;;5073538;28;20078;-74
2022/02/13 06:46:40;;;;;;;3.42;2.10;;;16.30;49.10;;;;;;5075309;28;20023;-73
2022/02/13 06:49:07;;;;;;;5.07;2.15;;;16.30;49.10;;;;;;5075273;28;20369;-73
2022/02/13 06:51:33;;;;;;;5.43;2.25;;;16.30;49.10;;;;;;5074722;28;20079;-72
2022/02/13 06:53:59;;;;;;;3.25;1.90;;;16.30;49.10;;;;;;5074951;28;20028;-73
2022/02/13 06:56:25;;;;;;;6.40;2.42;;;16.30;49.30;;;;;;5073176;28;20399;-73
2022/02/13 06:58:50;;;;;;;4.22;2.13;;;16.30;49.30;;;;;;5073272;28;20025;-73
2022/02/13 07:01:16;;;;;;;3.78;1.88;;;16.30;49.50;;;;;;5074471;28;20017;-73
2022/02/13 07:03:42;;;;;;;3.05;2.13;;;16.30;49.50;;;;;;5074747;28;20058;-73
2022/02/13 07:06:07;;;;;;;4.47;2.22;;;16.40;49.60;;;;;;5074985;28;20020;-72
2022/02/13 07:08:33;;;;;;;3.20;2.08;;;16.40;49.50;;;;;;5073106;28;20027;-72
2022/02/13 07:10:59;;;;;;;3.08;2.13;;;16.40;49.50;;;;;;5074601;28;20403;-73
2022/02/13 07:13:25;;;;;;;2.97;2.15;;;16.50;49.50;;;;;;5074263;28;20024;-73
2022/02/13 07:15:51;;;;;;;3.15;1.92;;;16.50;49.50;;;;;;5074385;28;20401;-73
2022/02/13 07:18:16;;;;;;;3.75;2.35;;;16.50;49.40;;;;;;5072929;28;20028;-73
2022/02/13 07:20:42;;;;;;;5.32;2.08;;;16.60;49.40;;;;;;5074423;28;20539;-74
2022/02/13 07:23:08;;;;;;;3.33;1.90;;;16.60;49.30;;;;;;5073376;28;20020;-73
2022/02/13 07:25:34;;;;;;;4.28;2.10;;;16.60;49.30;;;;;;5072653;28;20025;-73
2022/02/13 07:28:58;;;;;;;4.20;2.15;;;16.60;49.30;;;;;;5072926;28;20357;-74
2022/02/13 07:30:46;;;;;;;3.85;2.17;;;16.60;49.20;;;;;;5073925;28;20027;-73
2022/02/13 07:33:12;;;;;;;4.22;2.20;;;16.70;49.20;;;;;;5073931;28;20403;-73
2022/02/13 07:35:40;;;;;;;4.90;2.03;;;16.70;49.20;;;;;;5073117;28;20037;-74
2022/02/13 07:38:06;;;;;;;3.35;2.33;;;16.70;49.20;;;;;;5073102;28;20028;-74
2022/02/13 07:40:32;;;;;;;2.50;1.65;;;16.70;49.10;;;;;;5073822;28;20086;-74
2022/02/13 07:42:58;;;;;;;3.60;2.05;;;16.80;49.10;;;;;;5074022;28;20028;-74
2022/02/13 07:45:23;;;;;;;3.28;2.00;;;16.80;49.20;;;;;;5073729;28;20028;-73
2022/02/13 07:47:49;;;;;;;2.85;1.73;;;16.80;49.10;;;;;;5073931;28;20031;-75
2022/02/13 07:50:15;;;;;;;2.42;1.63;;;16.80;49.10;;;;;;5072268;28;20491;-73
2022/02/13 07:52:41;;;;;;;3.63;1.88;;;16.90;49.10;;;;;;5072306;28;20469;-73
2022/02/13 07:55:07;;;;;;;3.42;1.98;;;16.90;49.10;;;;;;5073546;28;20025;-73
2022/02/13 07:57:32;;;;;;;3.25;1.42;;;16.90;49.00;;;;;;5073536;28;20604;-73
2022/02/13 07:59:58;;;;;;;3.42;2.00;;;17.00;49.00;;;;;;5072413;28;20024;-73
2022/02/13 08:02:24;;;;;;;4.53;1.75;;;17.00;49.00;;;;;;5072069;28;20033;-73
2022/02/13 08:04:49;;;;;;;3.28;1.85;;;17.00;48.90;;;;;;5072461;28;20538;-74
2022/02/13 08:07:15;;;;;;;3.50;1.50;;;17.00;48.90;;;;;;5071983;28;20028;-73
2022/02/13 08:09:42;;;;;;;3.10;1.75;;;17.00;48.90;;;;;;5072205;28;20054;-73
2022/02/13 08:12:09;;;;;;;3.30;1.83;;;17.00;48.80;;;;;;5073898;28;20056;-72
2022/02/13 08:14:35;;;;;;;2.88;2.05;;;17.10;48.80;;;;;;5073704;28;20025;-74
2022/02/13 08:17:01;;;;;;;3.10;1.80;;;17.10;48.80;;;;;;5073277;28;20039;-73
2022/02/13 08:19:27;;;;;;;3.15;1.80;;;17.10;48.80;;;;;;5071785;28;20020;-74
2022/02/13 08:21:52;;;;;;;2.63;1.70;;;17.10;48.80;;;;;;5072032;28;20481;-73
2022/02/13 08:24:19;;;;;;;3.58;2.10;;;17.10;48.90;;;;;;5072850;28;20020;-73
2022/02/13 08:26:45;;;;;;;5.07;2.20;;;17.10;48.80;;;;;;5073208;28;20028;-72
2022/02/13 08:29:10;;;;;;;3.40;2.08;;;17.10;48.80;;;;;;5071600;28;20111;-74
2022/02/13 08:31:36;;;;;;;3.97;1.90;;;17.10;48.80;;;;;;5073393;28;20104;-74
2022/02/13 08:34:01;;;;;;;3.78;1.88;;;17.10;48.90;;;;;;5073046;28;20115;-74
2022/02/13 08:36:27;;;;;;;3.15;1.75;;;17.10;48.80;;;;;;5072714;28;20092;-73
2022/02/13 08:38:53;;;;;;;4.55;2.10;;;17.10;48.80;;;;;;5072869;28;20032;-73
2022/02/13 08:41:18;;;;;;;2.95;1.73;;;17.10;48.80;;;;;;5070604;28;20412;-74
2022/02/13 08:43:44;;;;;;;2.40;1.48;;;17.20;48.80;;;;;;5072668;28;20025;-74
2022/02/13 08:46:10;;;;;;;3.75;1.98;;;17.20;48.80;;;;;;5072631;28;20096;-73
2022/02/13 08:48:36;;;;;;;2.72;1.90;;;17.20;48.70;;;;;;5073108;28;20028;-74
2022/02/13 08:51:01;;;;;;;2.67;1.80;;;17.20;48.60;;;;;;5072735;28;20028;-74
2022/02/13 08:53:27;;;;;;;4.57;2.22;;;17.20;48.60;;;;;;5072304;28;20546;-74
2022/02/13 08:55:53;;;;;;;4.63;2.38;;;17.20;48.50;;;;;;5072520;28;20068;-74
2022/02/13 08:58:18;;;;;;;3.80;2.20;;;17.20;48.50;;;;;;5071002;28;20025;-75
2022/02/13 09:00:44;;;;;;;3.97;2.20;;;17.20;48.50;;;;;;5072613;28;20036;-74
2022/02/13 09:03:09;;;;;;;3.40;1.90;;;17.20;48.50;;;;;;5072487;28;20384;-72
2022/02/13 09:05:35;;;;;;;3.30;2.05;;;17.20;48.50;;;;;;5071630;28;20021;-73
2022/02/13 09:08:02;;;;;;;4.05;2.33;;;17.20;48.40;;;;;;5072341;28;20518;-73
2022/02/13 09:10:28;;;;;;;4.32;2.75;;;17.20;48.50;;;;;;5071973;28;20032;-75
2022/02/13 09:12:54;;;;;;;2.97;1.83;;;17.20;48.40;;;;;;5072299;28;20028;-74
2022/02/13 09:15:20;;;;;;;3.58;2.03;;;17.20;48.40;;;;;;5071925;28;20028;-74
2022/02/13 09:17:46;;;;;;;3.50;2.15;;;17.20;48.50;;;;;;5072082;28;20380;-75
2022/02/13 09:20:12;;;;;;;3.88;2.30;;;17.20;48.50;;;;;;5071816;28;20029;-74
2022/02/13 09:22:38;;;;;;;4.18;2.10;;;17.20;48.40;;;;;;5072343;28;20020;-74
2022/02/13 09:25:04;;;;;;;3.45;2.15;;;17.20;48.40;;;;;;5071967;28;20103;-75
2022/02/13 09:27:30;;;;;;;4.85;2.45;;;17.30;48.50;;;;;;5069937;28;20067;-75
2022/02/13 09:29:55;;;;;;;2.92;2.10;;;17.20;48.40;;;;;;5071309;28;20056;-74
2022/02/13 09:32:21;;;;;;;3.38;1.98;;;17.20;48.50;;;;;;5070766;28;20048;-73
2022/02/13 09:34:47;;;;;;;4.15;2.30;;;17.20;48.40;;;;;;5070258;28;20023;-74
2022/02/13 09:37:13;;;;;;;3.92;2.05;;;17.20;48.30;;;;;;5068982;28;20032;-74
2022/02/13 09:39:39;;;;;;;3.60;1.95;;;17.20;48.30;;;;;;5068598;28;20036;-73
2022/02/13 09:42:05;;;;;;;2.95;1.85;;;17.20;48.30;;;;;;5070850;28;20119;-73
2022/02/13 09:44:31;;;;;;;3.75;2.10;;;17.20;48.20;;;;;;5068850;28;20536;-73
2022/02/13 09:46:57;;;;;;;4.65;2.47;;;17.20;48.20;;;;;;5070348;28;20050;-74
2022/02/13 09:49:22;;;;;;;4.15;2.15;;;17.20;48.20;;;;;;5069400;28;20029;-75
2022/02/13 09:51:48;;;;;;;3.70;2.00;;;17.30;48.10;;;;;;5071198;28;20111;-74
2022/02/13 09:54:14;;;;;;;4.18;2.72;;;17.30;48.00;;;;;;5069461;28;20029;-74
2022/02/13 09:56:40;;;;;;;3.35;1.85;;;17.20;48.10;;;;;;5069947;28;20048;-73
2022/02/13 09:59:09;;;;;;;3.22;1.92;;;17.20;48.10;;;;;;5069838;28;20394;-74
2022/02/13 10:01:40;;;;;;;3.90;1.88;;;17.20;48.10;;;;;;5071166;28;20043;-73
2022/02/13 10:04:09;;;;;;;4.22;2.10;;;17.20;48.10;;;;;;5069605;28;20032;-75
2022/02/13 10:06:36;;;;;;;3.47;2.03;;;17.20;48.00;;;;;;5071608;28;20118;-75
2022/02/13 10:09:04;;;;;;;4.68;2.15;;;17.30;48.00;;;;;;5070684;28;20024;-73
2022/02/13 10:11:35;;;;;;;3.08;2.10;;;17.40;48.10;;;;;;5071079;28;20372;-73
2022/02/13 10:14:15;;;;;;;4.30;1.83;;;17.50;48.10;;;;;;5070269;28;20021;-74
2022/02/13 10:16:45;;;;;;;8.10;3.15;;;17.60;47.90;;;;;;5070835;28;20519;-72
2022/02/13 10:19:15;;;;;;;8.52;4.50;;;17.70;48.00;;;;;;5070909;28;20032;-72
2022/02/13 10:21:45;;;;;;;12.95;6.25;;;17.80;48.20;;;;;;5070829;28;20062;-73
2022/02/13 10:24:17;;;;;;;7.30;4.70;;;17.80;48.50;;;;;;5069113;28;20074;-72
2022/02/13 10:27:05;;;;;;;7.18;4.20;;;18.00;48.50;;;;;;5071012;28;20056;-73
2022/02/13 10:29:33;;;;;;;6.55;4.25;;;18.10;48.70;;;;;;5068453;28;20400;-73
2022/02/13 10:32:25;;;;;;;6.40;3.83;;;18.20;48.80;;;;;;5069377;28;20020;-73
2022/02/13 10:35:05;;;;;;;6.85;3.95;;;18.30;48.80;;;;;;5070226;28;20024;-74
2022/02/13 10:37:48;;;;;;;7.75;3.72;;;18.50;48.70;;;;;;5070045;28;20527;-73
2022/02/13 10:40:22;;;;;;;6.47;3.17;;;18.60;48.80;;;;;;5066939;28;20057;-72
2022/02/13 10:42:49;;;;;;;6.93;2.90;;;18.80;48.80;;;;;;5070502;28;20051;-72
2022/02/13 10:45:26;;;;;;;5.53;2.55;;;18.90;48.70;;;;;;5070008;28;20412;-72
2022/02/13 10:48:00;;;;;;;10.20;3.15;;;19.00;48.70;;;;;;5070984;28;20021;-73
2022/02/13 10:50:28;;;;;;;6.15;2.72;;;19.00;48.80;;;;;;5068170;28;20081;-72
2022/02/13 10:52:58;;;;;;;5.00;2.67;;;19.10;48.80;;;;;;5069176;28;20025;-71
2022/02/13 10:55:25;;;;;;;8.70;3.60;;;19.20;48.80;;;;;;5069430;28;20036;-74
2022/02/13 10:57:51;;;;;;;9.13;3.03;;;19.30;48.90;;;;;;5068223;28;20036;-73
2022/02/13 11:00:18;;;;;;;5.93;3.20;;;19.50;48.70;;;;;;5068184;28;20389;-72
2022/02/13 11:02:48;;;;;;;5.32;2.67;;;19.60;48.40;;;;;;5070417;28;20110;-74
2022/02/13 11:05:15;;;;;;;6.32;2.65;;;19.80;48.10;;;;;;5069254;28;20016;-76
2022/02/13 11:07:44;;;;;;;5.78;2.50;;;19.90;47.70;;;;;;5069101;28;20484;-72
2022/02/13 11:10:30;;;;;;;4.68;2.63;;;20.00;48.20;;;;;;5069497;28;20115;-74
2022/02/13 11:12:56;;;;;;;5.80;2.85;;;20.00;48.20;;;;;;5069573;28;20551;-74
2022/02/13 11:15:30;;;;;;;4.57;2.60;;;20.00;48.30;;;;;;5069709;28;20046;-72
2022/02/13 11:18:02;;;;;;;8.98;2.30;;;20.00;48.20;;;;;;5070684;28;20044;-75
2022/02/13 11:20:28;;;;;;;8.85;2.42;;;20.10;48.00;;;;;;5069943;28;20108;-74
2022/02/13 11:22:54;;;;;;;6.25;2.40;;;20.10;47.90;;;;;;5069305;28;20035;-72
2022/02/13 11:25:57;;;;;;;15.75;2.10;;;20.10;48.00;;;;;;5069587;28;20044;-74
2022/02/13 11:28:42;;;;;;;5.03;2.50;;;20.20;48.10;;;;;;5065823;28;20039;-72
2022/02/13 11:31:32;;;;;;;6.35;2.22;;;20.20;48.10;;;;;;5070141;28;20056;-73
2022/02/13 11:33:58;;;;;;;3.58;2.10;;;20.20;48.40;;;;;;5065277;28;20036;-79
2022/02/13 11:36:44;;;;;;;7.47;2.30;;;20.20;48.50;;;;;;5073388;28;20062;-75
2022/02/13 11:39:11;;;;;;;5.63;2.60;;;20.20;48.50;;;;;;5071380;28;20024;-72
2022/02/13 11:41:45;;;;;;;6.05;2.13;;;20.20;48.50;;;;;;5073600;28;20094;-73
2022/02/13 11:44:30;;;;;;;3.50;2.03;;;20.30;48.60;;;;;;5072653;28;20107;-74
2022/02/13 11:46:57;;;;;;;3.17;1.67;;;20.30;48.60;;;;;;5073874;28;20036;-74
2022/02/13 11:49:23;;;;;;;3.78;2.10;;;20.40;49.00;;;;;;5072232;28;20491;-74
2022/02/13 11:51:50;;;;;;;5.93;2.47;;;20.50;48.50;;;;;;5073762;28;20020;-72
2022/02/13 11:54:38;;;;;;;4.57;2.33;;;20.50;48.60;;;;;;5073416;28;20164;-74
2022/02/13 11:57:33;;;;;;;3.60;1.98;;;20.50;48.60;;;;;;5072969;28;20036;-72
2022/02/13 11:59:58;;;;;;;4.97;2.50;;;20.50;48.80;;;;;;5050638;28;20417;-72
2022/02/13 12:02:30;;;;;;;4.65;1.92;;;20.60;48.90;;;;;;5051943;28;20040;-72
2022/02/13 12:05:07;;;;;;;5.68;2.78;;;20.70;48.80;;;;;;5052116;28;20074;-74
2022/02/13 12:07:54;;;;;;;3.78;2.05;;;20.70;48.80;;;;;;5053464;28;20044;-73
2022/02/13 12:10:28;;;;;;;5.45;2.35;;;20.70;49.00;;;;;;5088878;28;20016;-74
2022/02/13 12:13:14;;;;;;;9.88;2.55;;;20.70;48.80;;;;;;5093489;28;20027;-75
2022/02/13 12:15:47;;;;;;;;;;;20.70;49.20;;;;;;5093984;28;20507;-72
2022/02/13 12:18:14;;;;;;;4.30;2.05;;;20.60;49.20;;;;;;5092036;28;19904;-75
2022/02/13 12:20:42;;;;;;;6.65;2.08;;;20.50;49.30;;;;;;5076467;28;20025;-74
2022/02/13 12:23:10;;;;;;;10.27;2.58;;;20.50;49.60;;;;;;5073661;28;20033;-72
2022/02/13 12:25:37;;;;;;;4.88;2.17;;;20.50;49.50;;;;;;5073582;28;20025;-75
2022/02/13 12:28:05;;;;;;;4.35;1.85;;;20.40;49.80;;;;;;5072873;28;20024;-76
2022/02/13 12:30:32;;;;;;;4.47;2.22;;;20.40;49.80;;;;;;5070976;28;20431;-76
2022/02/13 12:33:03;;;;;;;4.03;1.77;;;20.40;49.80;;;;;;5071745;28;20063;-74
2022/02/13 12:35:33;;;;;;;5.05;2.03;;;20.30;49.90;;;;;;5071622;28;20035;-77
2022/02/13 12:38:02;;;;;;;5.18;2.30;;;20.30;50.10;;;;;;5071547;28;20476;-76
2022/02/13 12:40:38;;;;;;;4.47;1.80;;;20.30;50.30;;;;;;5072046;28;20024;-76
2022/02/13 12:43:06;;;;;;;4.68;2.30;;;20.30;50.60;;;;;;5072969;28;20081;-74
2022/02/13 12:45:34;;;;;;;6.68;1.85;;;20.40;50.70;;;;;;5072511;28;20431;-78
2022/02/13 12:48:05;;;;;;;6.10;2.33;;;20.40;50.80;;;;;;5072800;28;20038;-77
2022/02/13 12:50:37;;;;;;;4.55;2.00;;;20.40;50.80;;;;;;5072640;28;20052;-76